createdAt,value
2023-01-13T00:02:50.195Z,66.30
2023-01-13T00:05:22.507Z,66.50
2023-01-13T00:07:55.048Z,66.80
2023-01-13T00:10:31.539Z,66.80
2023-01-13T00:13:03.329Z,66.80
2023-01-13T00:15:41.415Z,66.70
2023-01-13T00:18:23.282Z,66.40
2023-01-13T00:21:01.217Z,66.50
2023-01-13T00:23:41.247Z,66.50
2023-01-13T00:26:25.250Z,66.70
2023-01-13T00:29:02.421Z,66.70
2023-01-13T00:31:45.410Z,66.60
2023-01-13T00:34:41.201Z,66.80
2023-01-13T00:37:25.518Z,66.90
2023-01-13T00:39:56.215Z,66.70
2023-01-13T00:52:11.536Z,66.90
2023-01-13T01:06:16.017Z,67.80
2023-01-13T01:08:55.117Z,67.80
2023-01-13T01:11:37.027Z,68.10
2023-01-13T01:14:27.522Z,67.90
2023-01-13T01:17:15.480Z,68.60
2023-01-13T01:19:56.326Z,68.60
2023-01-13T01:22:28.413Z,68.80
2023-01-13T02:19:29.873Z,68.60
2023-01-13T02:26:06.894Z,68.50
2023-01-13T02:32:38.645Z,68.20
2023-01-13T02:36:23.203Z,68.30
2023-01-13T02:42:26.530Z,68.40
2023-01-13T02:45:11.939Z,68.20
2023-01-13T02:48:17.550Z,68.00
2023-01-13T02:50:55.056Z,67.80
2023-01-13T02:53:54.548Z,67.90
2023-01-13T02:59:33.964Z,67.80
2023-01-13T03:02:21.276Z,67.60
2023-01-13T03:05:08.349Z,67.50
2023-01-13T03:08:29.767Z,67.70
2023-01-13T03:11:13.578Z,67.50
2023-01-13T03:14:19.558Z,67.50
2023-01-13T03:17:14.489Z,67.40
2023-01-13T03:19:58.614Z,67.40
2023-01-13T03:22:46.029Z,67.30
2023-01-13T03:25:24.074Z,67.20
2023-01-13T03:28:00.496Z,67.30
2023-01-13T03:30:41.701Z,67.30
2023-01-13T03:33:24.382Z,67.30
2023-01-13T03:36:05.361Z,67.40
2023-01-13T03:38:42.342Z,67.30
2023-01-13T03:41:17.467Z,67.10
2023-01-13T03:44:10.848Z,66.90
2023-01-13T03:46:48.848Z,67.00
2023-01-13T03:49:21.634Z,66.80
2023-01-13T03:51:58.515Z,66.90
2023-01-13T03:54:39.454Z,66.90
2023-01-13T03:57:14.038Z,66.90
2023-01-13T03:59:49.365Z,66.80
2023-01-13T04:02:27.163Z,66.80
2023-01-13T04:04:59.968Z,66.60
2023-01-13T04:07:42.437Z,66.60
2023-01-13T04:10:42.625Z,66.60
2023-01-13T04:13:14.971Z,66.50
2023-01-13T04:15:50.986Z,66.70
2023-01-13T04:18:23.319Z,66.40
2023-01-13T04:20:56.673Z,66.60
2023-01-13T04:23:25.871Z,66.50
2023-01-13T04:25:58.340Z,66.60
2023-01-13T04:28:27.818Z,66.50
2023-01-13T04:30:56.574Z,66.50
2023-01-13T04:33:25.408Z,66.60
2023-01-13T04:35:55.426Z,66.40
2023-01-13T04:38:24.348Z,66.60
2023-01-13T04:44:20.108Z,66.30
2023-01-13T04:46:54.146Z,66.10
2023-01-13T04:49:22.898Z,66.50
2023-01-13T04:51:52.800Z,66.30
2023-01-13T04:54:24.307Z,66.50
2023-01-13T04:56:55.930Z,67.10
2023-01-13T04:59:28.832Z,65.80
2023-01-13T05:01:57.623Z,66.50
2023-01-13T05:04:31.550Z,66.40
2023-01-13T05:07:02.283Z,66.50
2023-01-13T05:09:30.892Z,66.60
2023-01-13T05:12:16.772Z,66.40
2023-01-13T05:15:11.410Z,66.30
2023-01-13T05:17:58.242Z,66.20
2023-01-13T05:20:27.130Z,66.30
2023-01-13T05:39:20.190Z,65.90
2023-01-13T05:45:36.227Z,66.20
2023-01-13T05:48:13.906Z,66.20
2023-01-13T05:50:42.521Z,65.70
2023-01-13T05:53:11.102Z,66.10
2023-01-13T05:55:42.754Z,66.10
2023-01-13T05:58:16.456Z,65.90
2023-01-13T06:00:45.350Z,65.90
2023-01-13T06:03:14.323Z,66.00
2023-01-13T06:05:45.336Z,65.80
2023-01-13T06:08:14.322Z,65.90
2023-01-13T06:10:50.042Z,66.00
2023-01-13T06:13:20.194Z,66.00
2023-01-13T06:15:48.710Z,66.00
2023-01-13T06:18:22.349Z,65.90
2023-01-13T06:20:50.958Z,66.10
2023-01-13T06:23:24.831Z,65.90
2023-01-13T06:26:01.543Z,65.90
2023-01-13T06:28:33.444Z,65.70
2023-01-13T06:31:07.210Z,65.80
2023-01-13T06:33:42.658Z,65.80
2023-01-13T06:36:18.328Z,65.80
2023-01-13T06:38:51.316Z,65.90
2023-01-13T06:41:43.036Z,66.70
2023-01-13T06:44:12.149Z,65.80
2023-01-13T06:46:43.500Z,65.80
2023-01-13T06:49:15.253Z,65.90
2023-01-13T06:51:47.819Z,65.70
2023-01-13T06:54:16.391Z,66.00
2023-01-13T06:56:45.087Z,65.90
2023-01-13T06:59:15.370Z,65.90
2023-01-13T07:01:46.006Z,66.00
2023-01-13T07:04:14.900Z,65.90
2023-01-13T07:06:43.453Z,66.00
2023-01-13T07:09:12.165Z,66.00
2023-01-13T07:11:41.153Z,65.90
2023-01-13T07:14:30.121Z,66.10
2023-01-13T07:17:03.179Z,66.00
2023-01-13T07:19:31.848Z,65.80
2023-01-13T07:22:00.252Z,65.80
2023-01-13T07:24:30.353Z,65.80
2023-01-13T07:26:59.083Z,65.70
2023-01-13T07:29:29.794Z,65.90
2023-01-13T07:32:02.432Z,65.80
2023-01-13T07:34:31.478Z,65.90
2023-01-13T07:37:00.052Z,65.80
2023-01-13T07:39:28.945Z,65.70
2023-01-13T07:42:14.369Z,65.80
2023-01-13T07:44:43.738Z,65.60
2023-01-13T07:47:15.387Z,65.80
2023-01-13T07:49:48.683Z,65.90
2023-01-13T07:52:22.011Z,65.70
2023-01-13T07:54:50.917Z,65.50
2023-01-13T07:57:19.593Z,65.70
2023-01-13T08:50:50.828Z,64.70
2023-01-13T09:04:01.864Z,64.80
2023-01-13T09:09:54.971Z,65.10
2023-01-13T09:12:54.602Z,64.90
2023-01-13T10:03:28.944Z,66.60
2023-01-13T10:06:06.976Z,66.90
2023-01-13T10:08:40.252Z,67.00
2023-01-13T10:11:28.866Z,67.20
2023-01-13T10:14:01.596Z,67.50
2023-01-13T10:16:42.410Z,67.70
2023-01-13T10:19:22.731Z,67.80
2023-01-13T10:22:33.028Z,68.00
2023-01-13T10:25:25.837Z,68.20
2023-01-13T10:27:56.625Z,68.20
2023-01-13T10:30:31.692Z,68.20
2023-01-13T10:33:02.808Z,68.30
2023-01-13T10:35:53.470Z,68.40
2023-01-13T10:38:26.423Z,68.40
2023-01-13T10:40:56.393Z,68.60
2023-01-13T10:43:29.698Z,68.70
2023-01-13T10:46:08.092Z,68.80
2023-01-13T10:48:43.043Z,68.60
2023-01-13T10:51:29.169Z,68.80
2023-01-13T10:54:03.746Z,68.50
2023-01-13T10:56:41.813Z,68.20
2023-01-13T10:59:32.071Z,68.40
2023-01-13T11:02:19.904Z,68.80
2023-01-13T11:05:19.992Z,68.60
2023-01-13T11:07:52.686Z,68.20
2023-01-13T11:10:27.806Z,68.20
2023-01-13T11:13:09.610Z,68.00
2023-01-13T11:15:49.746Z,67.80
2023-01-13T11:18:30.382Z,67.80
2023-01-13T11:21:12.090Z,67.50
2023-01-13T11:23:49.727Z,67.20
2023-01-13T11:26:26.950Z,67.80
2023-01-13T11:29:08.418Z,67.50
2023-01-13T11:31:57.123Z,67.40
2023-01-13T11:34:36.854Z,67.60
2023-01-13T11:37:16.242Z,67.80
2023-01-13T11:39:56.918Z,67.60
2023-01-13T11:42:41.220Z,67.40
2023-01-13T13:09:43.363Z,54.80
2023-01-13T13:13:05.915Z,53.10
2023-01-13T13:15:41.356Z,52.40
2023-01-13T13:23:04.069Z,51.50
2023-01-13T13:33:39.277Z,49.90
2023-01-13T13:54:43.627Z,51.80
2023-01-13T14:05:42.985Z,53.60
2023-01-13T14:42:15.602Z,56.90
2023-01-13T17:55:01.368Z,65.90
2023-01-13T17:57:50.515Z,65.70
2023-01-13T18:00:43.851Z,65.70
2023-01-13T18:03:20.912Z,65.40
2023-01-13T18:06:04.974Z,65.30
2023-01-13T18:08:56.394Z,65.30
2023-01-13T18:33:50.016Z,63.80
2023-01-13T19:05:50.917Z,63.80
2023-01-13T19:25:56.583Z,62.80
2023-01-13T19:28:32.629Z,62.70
2023-01-13T19:31:10.085Z,63.00
2023-01-13T19:37:15.162Z,62.80
2023-01-13T19:39:54.084Z,63.10
2023-01-13T19:42:46.462Z,62.90
2023-01-13T19:45:41.767Z,63.30
2023-01-13T19:48:19.125Z,62.90
2023-01-13T19:50:59.423Z,63.00
2023-01-13T19:53:37.190Z,63.00
2023-01-13T20:08:59.899Z,62.90
2023-01-13T21:31:52.523Z,64.00
2023-01-13T21:34:43.388Z,64.10
2023-01-13T21:38:06.890Z,64.10
2023-01-13T21:40:54.717Z,63.90
2023-01-13T21:43:59.583Z,63.60
2023-01-13T21:50:58.574Z,63.90
2023-01-13T21:53:52.819Z,64.00
2023-01-13T22:00:28.415Z,63.90
2023-01-13T22:03:05.306Z,63.90
2023-01-13T22:05:40.117Z,64.20
2023-01-13T22:12:25.385Z,63.80
2023-01-13T22:15:07.452Z,63.80
2023-01-13T22:17:54.808Z,64.00
2023-01-13T22:20:50.855Z,64.20
2023-01-13T22:23:44.199Z,64.10
2023-01-13T22:26:20.073Z,64.50
2023-01-13T22:29:12.318Z,64.40
2023-01-13T22:31:50.293Z,64.30
2023-01-13T22:34:38.718Z,64.60
2023-01-13T22:37:33.967Z,64.70
2023-01-13T22:40:36.512Z,64.60
2023-01-13T22:43:24.008Z,64.70
2023-01-13T22:46:07.862Z,64.90
2023-01-13T22:49:18.331Z,64.70
2023-01-13T22:51:51.131Z,64.70
2023-01-13T22:54:28.327Z,64.80
2023-01-13T23:06:02.145Z,65.80
2023-01-13T23:08:29.681Z,65.10
2023-01-13T23:11:40.859Z,65.10
2023-01-13T23:15:00.761Z,64.80
2023-01-13T23:20:48.897Z,65.30
2023-01-13T23:23:25.864Z,65.50
2023-01-13T23:26:06.583Z,65.30
2023-01-13T23:28:49.597Z,65.20
2023-01-13T23:31:31.761Z,65.10
2023-01-13T23:34:01.479Z,65.70
2023-01-13T23:36:39.509Z,65.50
2023-01-13T23:43:15.600Z,65.30
2023-01-13T23:45:51.802Z,65.60
2023-01-13T23:48:21.184Z,65.60
2023-01-13T23:51:01.072Z,65.80
2023-01-13T23:53:33.931Z,65.50
2023-01-13T23:56:11.460Z,66.10
2023-01-13T23:58:41.313Z,65.70
